createdAt,value
2018-04-25T00:01:07.008Z,41.77
2018-04-25T00:03:33.344Z,41.71
2018-04-25T00:05:59.684Z,41.78
2018-04-25T00:08:26.041Z,42.00
2018-04-25T00:10:52.374Z,42.05
2018-04-25T00:13:18.688Z,42.13
2018-04-25T00:15:45.018Z,42.13
2018-04-25T00:18:11.365Z,42.19
2018-04-25T00:20:37.697Z,42.25
2018-04-25T00:23:04.094Z,42.39
2018-04-25T00:25:30.454Z,42.41
2018-04-25T00:27:56.809Z,42.48
2018-04-25T00:30:23.139Z,42.55
2018-04-25T00:32:49.528Z,42.54
2018-04-25T00:35:15.849Z,42.58
2018-04-25T00:37:42.185Z,42.59
2018-04-25T00:40:15.711Z,42.68
2018-04-25T00:42:42.026Z,42.71
2018-04-25T00:45:08.398Z,42.81
2018-04-25T00:47:34.751Z,42.81
2018-04-25T00:50:01.068Z,42.92
2018-04-25T00:52:27.387Z,42.87
2018-04-25T00:54:53.709Z,43.00
2018-04-25T00:57:20.029Z,42.93
2018-04-25T00:59:46.376Z,42.98
2018-04-25T01:02:12.692Z,43.13
2018-04-25T01:04:39.121Z,42.75
2018-04-25T01:07:05.515Z,42.42
2018-04-25T01:09:31.872Z,42.52
2018-04-25T01:11:58.264Z,42.97
2018-04-25T01:14:24.749Z,43.67
2018-04-25T01:16:51.075Z,43.64
2018-04-25T01:19:17.436Z,43.87
2018-04-25T01:21:43.766Z,44.00
2018-04-25T01:24:10.195Z,43.68
2018-04-25T01:26:36.541Z,43.68
2018-04-25T01:29:02.920Z,43.22
2018-04-25T01:31:29.248Z,42.96
2018-04-25T01:33:55.571Z,43.17
2018-04-25T01:36:21.895Z,43.04
2018-04-25T01:38:48.241Z,43.18
2018-04-25T01:41:14.558Z,43.37
2018-04-25T01:43:40.924Z,43.35
2018-04-25T01:46:07.284Z,43.54
2018-04-25T01:48:33.638Z,43.50
2018-04-25T01:51:00.000Z,43.10
2018-04-25T01:53:26.353Z,43.21
2018-04-25T01:55:52.720Z,43.27
2018-04-25T01:58:19.052Z,43.06
2018-04-25T02:00:45.465Z,43.15
2018-04-25T02:03:11.796Z,43.00
2018-04-25T02:05:38.132Z,43.10
2018-04-25T02:08:04.528Z,43.24
2018-04-25T02:10:30.964Z,43.37
2018-04-25T02:12:57.292Z,43.10
2018-04-25T02:15:23.628Z,43.00
2018-04-25T02:17:49.963Z,43.14
2018-04-25T02:20:16.317Z,42.97
2018-04-25T02:22:42.761Z,43.03
2018-04-25T02:25:09.222Z,43.16
2018-04-25T02:27:35.639Z,42.93
2018-04-25T02:30:02.283Z,42.87
2018-04-25T02:32:28.620Z,43.02
2018-04-25T02:34:55.135Z,43.22
2018-04-25T02:37:21.503Z,42.84
2018-04-25T02:39:47.858Z,42.75
2018-04-25T02:42:14.183Z,42.67
2018-04-25T02:44:40.590Z,42.92
2018-04-25T02:47:07.032Z,42.91
2018-04-25T02:49:33.404Z,42.80
2018-04-25T02:51:59.806Z,42.81
2018-04-25T02:54:26.163Z,42.58
2018-04-25T02:56:54.090Z,42.55
2018-04-25T02:59:20.633Z,42.72
2018-04-25T03:01:46.994Z,42.64
2018-04-25T03:04:13.576Z,42.71
2018-04-25T03:06:40.010Z,42.65
2018-04-25T03:09:06.402Z,42.45
2018-04-25T03:11:32.747Z,42.57
2018-04-25T03:13:59.162Z,42.82
2018-04-25T03:16:25.529Z,42.58
2018-04-25T03:18:51.896Z,42.68
2018-04-25T03:21:18.237Z,42.52
2018-04-25T03:23:44.618Z,42.45
2018-04-25T03:26:11.018Z,42.29
2018-04-25T03:28:37.351Z,41.66
2018-04-25T03:31:03.740Z,41.91
2018-04-25T03:33:30.064Z,41.63
2018-04-25T03:35:56.556Z,42.08
2018-04-25T03:38:23.012Z,41.83
2018-04-25T03:43:21.747Z,41.58
2018-04-25T03:45:48.137Z,41.58
2018-04-25T03:48:14.469Z,41.61
2018-04-25T03:50:40.841Z,41.45
2018-04-25T03:53:07.331Z,41.13
2018-04-25T03:55:33.669Z,41.33
2018-04-25T03:57:59.996Z,41.12
2018-04-25T04:00:26.334Z,41.14
2018-04-25T04:02:52.673Z,40.84
2018-04-25T04:05:19.086Z,40.75
2018-04-25T04:07:45.430Z,40.88
2018-04-25T04:10:12.036Z,40.52
2018-04-25T04:12:38.484Z,40.78
2018-04-25T04:15:04.897Z,40.41
2018-04-25T04:17:31.290Z,39.91
2018-04-25T04:19:57.636Z,40.19
2018-04-25T04:22:24.080Z,39.97
2018-04-25T04:24:50.545Z,39.68
2018-04-25T04:27:16.879Z,39.34
2018-04-25T04:29:43.283Z,39.01
2018-04-25T04:32:09.895Z,38.60
2018-04-25T04:34:36.225Z,38.30
2018-04-25T04:37:02.568Z,38.01
2018-04-25T04:39:28.969Z,37.91
2018-04-25T04:41:55.353Z,37.91
2018-04-25T04:44:21.876Z,37.97
2018-04-25T04:46:49.512Z,37.93
2018-04-25T04:49:15.900Z,37.78
2018-04-25T04:51:42.212Z,37.71
2018-04-25T04:54:08.533Z,37.75
2018-04-25T04:56:35.131Z,37.77
2018-04-25T04:59:01.583Z,37.76
2018-04-25T05:01:28.067Z,37.80
2018-04-25T05:03:54.571Z,37.74
2018-04-25T05:06:20.968Z,37.84
2018-04-25T05:08:47.419Z,37.89
2018-04-25T05:11:13.805Z,37.94
2018-04-25T05:13:40.280Z,38.03
2018-04-25T05:16:06.682Z,38.08
2018-04-25T05:18:33.100Z,38.05
2018-04-25T05:20:59.474Z,38.22
2018-04-25T05:23:25.815Z,38.37
2018-04-25T05:25:52.226Z,38.13
2018-04-25T05:28:18.564Z,38.07
2018-04-25T05:30:44.909Z,38.27
2018-04-25T05:33:11.242Z,37.91
2018-04-25T05:35:37.616Z,38.07
2018-04-25T05:38:04.000Z,38.20
2018-04-25T05:40:30.477Z,38.14
2018-04-25T05:42:56.985Z,38.46
2018-04-25T05:45:23.565Z,38.27
2018-04-25T05:47:50.092Z,38.36
2018-04-25T05:50:16.683Z,38.26
2018-04-25T05:52:43.123Z,38.44
2018-04-25T05:55:09.568Z,38.12
2018-04-25T05:57:35.935Z,38.32
2018-04-25T06:00:03.444Z,38.30
2018-04-25T06:02:29.869Z,38.31
2018-04-25T06:04:56.296Z,38.24
2018-04-25T06:07:23.058Z,38.17
2018-04-25T06:09:49.534Z,38.20
2018-04-25T06:12:15.890Z,38.17
2018-04-25T06:14:42.375Z,38.12
2018-04-25T06:17:08.850Z,38.23
2018-04-25T06:19:35.565Z,38.23
2018-04-25T06:22:01.981Z,38.37
2018-04-25T06:24:28.513Z,38.37
2018-04-25T06:26:54.932Z,38.23
2018-04-25T06:29:21.553Z,38.30
2018-04-25T06:31:47.906Z,38.27
2018-04-25T06:34:14.379Z,38.18
2018-04-25T06:36:40.756Z,38.01
2018-04-25T06:39:07.139Z,38.24
2018-04-25T06:41:33.510Z,38.08
2018-04-25T06:43:59.976Z,38.08
2018-04-25T06:46:26.380Z,38.20
2018-04-25T06:48:52.735Z,37.98
2018-04-25T06:51:19.181Z,38.16
2018-04-25T06:53:45.649Z,38.26
2018-04-25T06:56:12.280Z,38.32
2018-04-25T06:58:38.906Z,38.17
2018-04-25T07:01:05.531Z,38.31
2018-04-25T07:03:31.940Z,38.24
2018-04-25T07:05:58.426Z,38.33
2018-04-25T07:08:24.869Z,38.36
2018-04-25T07:10:51.239Z,38.27
2018-04-25T07:13:17.808Z,38.41
2018-04-25T07:15:44.317Z,38.12
2018-04-25T07:18:10.783Z,38.41
2018-04-25T07:20:37.445Z,38.57
2018-04-25T07:23:03.940Z,38.81
2018-04-25T07:25:30.600Z,38.56
2018-04-25T07:27:57.189Z,38.40
2018-04-25T07:30:23.657Z,38.57
2018-04-25T07:32:50.358Z,38.25
2018-04-25T07:35:16.707Z,38.22
2018-04-25T07:37:43.120Z,38.53
2018-04-25T07:40:09.577Z,38.54
2018-04-25T07:42:35.915Z,38.69
2018-04-25T07:45:02.383Z,38.14
2018-04-25T07:47:28.756Z,38.07
2018-04-25T07:49:55.308Z,38.51
2018-04-25T07:52:21.951Z,38.69
2018-04-25T07:54:48.508Z,38.58
2018-04-25T07:57:14.929Z,38.22
2018-04-25T07:59:41.352Z,38.76
2018-04-25T08:02:07.921Z,38.36
2018-04-25T08:04:34.415Z,38.91
2018-04-25T08:07:00.856Z,38.52
2018-04-25T08:09:27.376Z,38.67
2018-04-25T08:11:53.837Z,38.96
2018-04-25T08:14:20.518Z,38.62
2018-04-25T08:16:46.892Z,38.51
2018-04-25T08:19:13.449Z,39.02
2018-04-25T08:21:40.029Z,38.82
2018-04-25T08:24:06.549Z,38.79
2018-04-25T08:26:32.923Z,38.72
2018-04-25T08:28:59.491Z,38.82
2018-04-25T08:31:26.084Z,39.08
2018-04-25T08:33:52.520Z,38.94
2018-04-25T08:36:19.023Z,38.85
2018-04-25T08:38:45.537Z,39.04
2018-04-25T08:41:12.067Z,39.44
2018-04-25T08:43:38.469Z,39.28
2018-04-25T08:46:05.062Z,39.29
2018-04-25T08:48:31.538Z,39.46
2018-04-25T08:50:58.151Z,39.43
2018-04-25T08:53:24.743Z,39.29
2018-04-25T08:55:51.116Z,39.51
2018-04-25T09:00:50.099Z,39.44
2018-04-25T09:03:16.865Z,39.23
2018-04-25T09:05:43.411Z,39.07
2018-04-25T09:08:09.812Z,39.06
2018-04-25T09:10:36.150Z,39.18
2018-04-25T09:13:02.532Z,39.17
2018-04-25T09:15:28.908Z,39.57
2018-04-25T09:17:55.305Z,39.65
2018-04-25T09:20:21.642Z,39.43
2018-04-25T09:22:48.021Z,39.63
2018-04-25T09:25:14.507Z,39.85
2018-04-25T09:27:40.833Z,39.85
2018-04-25T09:30:07.212Z,39.78
2018-04-25T09:32:33.553Z,39.62
2018-04-25T09:34:59.877Z,39.68
2018-04-25T09:37:26.231Z,39.78
2018-04-25T09:39:52.549Z,39.83
2018-04-25T09:42:18.892Z,39.63
2018-04-25T09:44:45.305Z,39.56
2018-04-25T09:47:11.776Z,39.24
2018-04-25T09:49:38.127Z,39.27
2018-04-25T09:52:04.513Z,39.43
2018-04-25T09:54:30.955Z,39.57
2018-04-25T09:56:57.321Z,38.99
2018-04-25T09:59:23.685Z,39.19
2018-04-25T10:01:50.021Z,39.31
2018-04-25T10:04:16.423Z,39.13
2018-04-25T10:06:42.876Z,39.02
2018-04-25T10:09:09.324Z,38.78
2018-04-25T10:11:35.957Z,39.34
2018-04-25T10:14:02.326Z,39.04
2018-04-25T10:16:28.676Z,39.21
2018-04-25T10:18:55.092Z,39.14
2018-04-25T10:21:21.490Z,39.19
2018-04-25T10:23:47.966Z,39.26
2018-04-25T10:26:14.336Z,39.41
2018-04-25T10:28:40.731Z,39.20
2018-04-25T10:31:07.111Z,39.30
2018-04-25T10:33:33.452Z,39.57
2018-04-25T10:35:59.811Z,39.63
2018-04-25T10:38:26.987Z,39.36
2018-04-25T10:40:53.377Z,39.32
2018-04-25T10:43:19.692Z,39.56
2018-04-25T10:45:46.077Z,39.49
2018-04-25T10:48:12.471Z,39.94
2018-04-25T10:50:38.853Z,39.88
2018-04-25T10:53:05.271Z,39.75
2018-04-25T10:55:31.680Z,39.52
2018-04-25T10:57:58.062Z,40.14
2018-04-25T11:00:24.451Z,40.03
2018-04-25T11:02:50.845Z,39.68
2018-04-25T11:05:17.289Z,39.37
2018-04-25T11:07:43.627Z,39.31
2018-04-25T11:10:10.110Z,39.53
2018-04-25T11:12:36.468Z,39.45
2018-04-25T11:15:02.836Z,39.46
2018-04-25T11:17:29.162Z,39.35
2018-04-25T11:19:55.526Z,39.05
2018-04-25T11:22:21.927Z,39.24
2018-04-25T11:24:48.311Z,38.74
2018-04-25T11:27:14.680Z,39.10
2018-04-25T11:29:41.033Z,39.42
2018-04-25T11:32:07.466Z,39.33
2018-04-25T11:34:33.949Z,39.30
2018-04-25T11:37:00.356Z,39.52
2018-04-25T11:39:26.823Z,39.64
2018-04-25T11:41:53.277Z,39.17
2018-04-25T11:44:19.648Z,38.97
2018-04-25T11:46:46.013Z,38.60
2018-04-25T11:49:12.388Z,38.04
2018-04-25T11:51:38.815Z,38.11
2018-04-25T11:54:05.181Z,38.59
2018-04-25T11:56:31.552Z,38.14
2018-04-25T11:58:57.953Z,38.15
2018-04-25T12:01:24.485Z,38.73
2018-04-25T12:03:50.860Z,38.57
2018-04-25T12:06:17.319Z,37.52
2018-04-25T12:08:43.810Z,37.66
2018-04-25T12:11:10.288Z,37.27
2018-04-25T12:13:36.651Z,37.43
2018-04-25T12:16:03.020Z,37.52
2018-04-25T12:18:29.396Z,37.51
2018-04-25T12:20:55.742Z,37.44
2018-04-25T12:23:22.874Z,37.30
2018-04-25T12:25:49.281Z,37.03
2018-04-25T12:28:15.647Z,36.92
2018-04-25T12:30:42.013Z,36.59
2018-04-25T12:33:08.404Z,36.66
2018-04-25T12:35:34.804Z,36.76
2018-04-25T12:38:01.229Z,36.66
2018-04-25T12:40:27.563Z,36.73
2018-04-25T12:42:53.943Z,36.43
2018-04-25T12:45:20.404Z,36.03
2018-04-25T12:47:46.797Z,36.61
2018-04-25T12:50:13.289Z,36.85
2018-04-25T12:52:39.637Z,36.50
2018-04-25T12:55:06.684Z,36.32
2018-04-25T12:57:33.061Z,36.32
2018-04-25T12:59:59.516Z,35.86
2018-04-25T13:02:26.227Z,36.24
2018-04-25T13:04:52.600Z,35.93
2018-04-25T13:07:19.126Z,35.71
2018-04-25T13:09:45.578Z,36.18
2018-04-25T13:12:12.185Z,35.69
2018-04-25T13:14:38.661Z,36.24
2018-04-25T13:17:05.098Z,36.06
2018-04-25T13:19:31.618Z,35.89
2018-04-25T13:21:58.046Z,35.56
2018-04-25T13:24:24.561Z,35.84
2018-04-25T13:26:50.976Z,35.54
2018-04-25T13:29:17.420Z,35.53
2018-04-25T13:31:43.867Z,35.47
2018-04-25T13:34:10.362Z,35.44
2018-04-25T13:36:37.693Z,35.98
2018-04-25T13:39:04.110Z,35.34
2018-04-25T13:41:30.863Z,35.19
2018-04-25T13:43:57.662Z,35.13
2018-04-25T13:46:24.272Z,35.07
2018-04-25T13:48:50.819Z,35.16
2018-04-25T13:51:17.447Z,34.66
2018-04-25T13:53:44.195Z,35.09
2018-04-25T13:56:10.576Z,35.02
2018-04-25T13:58:36.947Z,34.94
2018-04-25T14:01:03.371Z,35.43
2018-04-25T14:03:29.769Z,34.82
2018-04-25T14:05:56.180Z,34.40
2018-04-25T14:08:22.649Z,35.01
2018-04-25T14:10:49.114Z,34.66
2018-04-25T14:13:15.541Z,35.12
2018-04-25T14:15:41.967Z,35.10
2018-04-25T14:18:08.430Z,35.13
2018-04-25T14:20:34.859Z,35.07
2018-04-25T14:23:01.303Z,35.21
2018-04-25T14:25:27.776Z,34.93
2018-04-25T14:27:54.130Z,34.55
2018-04-25T14:30:20.552Z,34.73
2018-04-25T14:32:46.944Z,34.99
2018-04-25T14:35:13.661Z,35.02
2018-04-25T14:37:40.016Z,35.02
2018-04-25T14:40:06.563Z,34.79
2018-04-25T14:42:32.899Z,34.37
2018-04-25T14:44:59.237Z,34.67
2018-04-25T14:47:25.608Z,34.89
2018-04-25T14:49:52.012Z,34.63
2018-04-25T14:52:18.392Z,34.90
2018-04-25T14:54:45.150Z,34.44
2018-04-25T14:57:11.633Z,34.81
2018-04-25T14:59:38.042Z,34.61
2018-04-25T15:02:04.495Z,34.66
2018-04-25T15:04:30.914Z,34.79
2018-04-25T15:06:57.303Z,35.00
2018-04-25T15:09:23.776Z,34.57
2018-04-25T15:11:50.325Z,34.45
2018-04-25T15:14:16.702Z,34.47
2018-04-25T15:16:43.065Z,34.22
2018-04-25T15:19:09.604Z,34.04
2018-04-25T15:21:35.943Z,34.44
2018-04-25T15:24:02.431Z,34.61
2018-04-25T15:26:28.888Z,34.30
2018-04-25T15:28:55.495Z,34.65
2018-04-25T15:31:21.942Z,34.53
2018-04-25T15:33:48.266Z,34.15
2018-04-25T15:36:14.709Z,33.73
2018-04-25T15:38:41.193Z,33.79
2018-04-25T15:41:07.632Z,34.13
2018-04-25T15:43:34.055Z,33.81
2018-04-25T15:46:00.459Z,34.19
2018-04-25T15:48:26.833Z,33.91
2018-04-25T15:50:53.230Z,33.62
2018-04-25T15:53:19.769Z,33.63
2018-04-25T15:55:46.175Z,33.60
2018-04-25T15:58:12.580Z,33.77
2018-04-25T16:00:39.009Z,33.72
2018-04-25T16:03:05.492Z,33.92
2018-04-25T16:05:32.008Z,33.85
2018-04-25T16:07:58.376Z,33.83
2018-04-25T16:10:24.798Z,34.25
2018-04-25T16:12:51.238Z,34.57
2018-04-25T16:15:17.606Z,34.64
2018-04-25T16:17:43.969Z,34.80
2018-04-25T16:20:10.332Z,34.71
2018-04-25T16:22:36.705Z,34.26
2018-04-25T16:25:03.092Z,34.92
2018-04-25T16:27:29.452Z,35.05
2018-04-25T16:29:55.830Z,34.25
2018-04-25T16:32:22.198Z,34.60
2018-04-25T16:34:48.536Z,34.16
2018-04-25T16:37:14.951Z,34.47
2018-04-25T16:39:41.332Z,34.88
2018-04-25T16:42:07.697Z,34.79
2018-04-25T16:44:34.117Z,34.81
2018-04-25T16:47:00.462Z,34.31
2018-04-25T16:49:26.921Z,34.22
2018-04-25T16:51:53.245Z,34.80
2018-04-25T16:54:19.616Z,34.74
2018-04-25T16:56:46.250Z,34.71
2018-04-25T16:59:12.612Z,34.88
2018-04-25T17:01:39.026Z,34.51
2018-04-25T17:04:05.412Z,34.43
2018-04-25T17:06:31.771Z,34.15
2018-04-25T17:08:58.124Z,34.44
2018-04-25T17:11:24.448Z,34.96
2018-04-25T17:13:50.804Z,35.14
2018-04-25T17:16:17.168Z,35.00
2018-04-25T17:18:43.550Z,34.95
2018-04-25T17:21:09.893Z,34.84
2018-04-25T17:23:36.250Z,34.81
2018-04-25T17:26:02.633Z,34.82
2018-04-25T17:28:28.950Z,34.79
2018-04-25T17:30:55.394Z,35.02
2018-04-25T17:33:21.713Z,34.81
2018-04-25T17:35:48.075Z,35.06
2018-04-25T17:38:14.448Z,35.20
2018-04-25T17:40:40.810Z,35.17
2018-04-25T17:43:07.144Z,35.06
2018-04-25T17:45:33.492Z,35.15
2018-04-25T17:47:59.808Z,35.30
2018-04-25T17:50:26.131Z,35.32
2018-04-25T17:52:52.478Z,35.40
2018-04-25T17:55:18.878Z,35.40
2018-04-25T17:57:45.201Z,35.53
2018-04-25T18:00:11.571Z,35.45
2018-04-25T18:02:37.951Z,35.54
2018-04-25T18:05:04.289Z,35.51
2018-04-25T18:07:30.597Z,35.56
2018-04-25T18:09:56.912Z,35.64
2018-04-25T18:12:23.279Z,35.65
2018-04-25T18:14:49.615Z,35.64
2018-04-25T18:17:15.981Z,35.65
2018-04-25T18:19:42.308Z,35.62
2018-04-25T18:22:08.613Z,35.68
2018-04-25T18:24:34.945Z,35.69
2018-04-25T18:27:01.348Z,35.70
2018-04-25T18:29:27.679Z,35.71
2018-04-25T18:31:54.080Z,35.78
2018-04-25T18:34:20.437Z,35.76
2018-04-25T18:36:46.753Z,35.84
2018-04-25T18:39:13.075Z,35.96
2018-04-25T18:41:39.447Z,36.01
2018-04-25T18:44:05.824Z,36.03
2018-04-25T18:46:32.176Z,36.11
2018-04-25T18:48:58.529Z,36.07
2018-04-25T18:51:24.913Z,36.05
2018-04-25T18:53:51.271Z,36.01
2018-04-25T18:56:17.593Z,36.14
2018-04-25T18:58:43.960Z,36.11
2018-04-25T19:01:10.316Z,36.12
2018-04-25T19:03:36.627Z,36.11
2018-04-25T19:06:02.956Z,36.20
2018-04-25T19:08:29.328Z,36.18
2018-04-25T19:10:55.672Z,36.14
2018-04-25T19:13:22.044Z,36.22
2018-04-25T19:15:48.420Z,36.14
2018-04-25T19:18:14.740Z,36.22
2018-04-25T19:20:41.131Z,36.27
2018-04-25T19:23:07.527Z,36.24
2018-04-25T19:25:33.846Z,36.27
2018-04-25T19:28:00.245Z,36.07
2018-04-25T19:30:26.566Z,36.38
2018-04-25T19:32:52.892Z,36.26
2018-04-25T19:35:19.218Z,36.14
2018-04-25T19:37:45.580Z,36.17
2018-04-25T19:40:11.904Z,36.43
2018-04-25T19:42:38.292Z,36.48
2018-04-25T19:45:04.697Z,36.47
2018-04-25T19:47:31.067Z,36.37
2018-04-25T19:49:57.446Z,36.41
2018-04-25T19:52:23.774Z,36.44
2018-04-25T19:54:50.105Z,36.85
2018-04-25T19:57:16.530Z,36.87
2018-04-25T19:59:42.904Z,36.88
2018-04-25T20:02:09.228Z,36.93
2018-04-25T20:04:35.561Z,36.88
2018-04-25T20:07:01.927Z,37.14
2018-04-25T20:09:28.294Z,37.14
2018-04-25T20:11:54.747Z,37.03
2018-04-25T20:14:21.103Z,37.16
2018-04-25T20:16:47.436Z,37.11
2018-04-25T20:19:13.809Z,37.08
2018-04-25T20:21:40.164Z,37.27
2018-04-25T20:24:06.482Z,37.22
2018-04-25T20:26:32.821Z,37.29
2018-04-25T20:28:59.150Z,37.39
2018-04-25T20:31:25.568Z,37.44
2018-04-25T20:33:51.916Z,37.30
2018-04-25T20:36:18.297Z,37.50
2018-04-25T20:38:44.653Z,37.39
2018-04-25T20:41:10.976Z,37.59
2018-04-25T20:43:37.352Z,37.43
2018-04-25T20:46:03.703Z,37.58
2018-04-25T20:48:30.072Z,37.44
2018-04-25T20:50:56.408Z,37.37
2018-04-25T20:53:22.788Z,37.41
2018-04-25T20:55:49.119Z,37.55
2018-04-25T20:58:15.485Z,37.43
2018-04-25T21:00:41.880Z,37.47
2018-04-25T21:03:08.240Z,37.33
2018-04-25T21:05:34.612Z,37.39
2018-04-25T21:08:00.969Z,37.36
2018-04-25T21:10:27.365Z,37.56
2018-04-25T21:12:53.716Z,37.79
2018-04-25T21:15:20.097Z,37.59
2018-04-25T21:17:46.422Z,37.61
2018-04-25T21:20:13.138Z,37.40
2018-04-25T21:22:39.607Z,37.40
2018-04-25T21:25:05.938Z,37.70
2018-04-25T21:27:32.317Z,37.52
2018-04-25T21:29:58.691Z,37.58
2018-04-25T21:32:25.093Z,37.82
2018-04-25T21:34:51.404Z,37.86
2018-04-25T21:37:17.796Z,37.90
2018-04-25T21:39:44.119Z,37.62
2018-04-25T21:42:10.432Z,37.59
2018-04-25T21:44:36.814Z,37.74
2018-04-25T21:47:03.154Z,37.81
2018-04-25T21:49:29.484Z,37.79
2018-04-25T21:51:55.839Z,38.01
2018-04-25T21:54:22.183Z,38.06
2018-04-25T21:56:48.542Z,37.95
2018-04-25T21:59:14.903Z,37.82
2018-04-25T22:01:41.231Z,37.98
2018-04-25T22:04:07.579Z,38.09
2018-04-25T22:06:33.889Z,37.94
2018-04-25T22:09:00.268Z,38.08
2018-04-25T22:11:26.619Z,38.04
2018-04-25T22:13:52.956Z,38.19
2018-04-25T22:16:19.277Z,38.03
2018-04-25T22:18:45.612Z,38.10
2018-04-25T22:21:11.972Z,38.23
2018-04-25T22:23:38.296Z,38.13
2018-04-25T22:26:04.677Z,38.17
2018-04-25T22:28:31.029Z,38.28
2018-04-25T22:30:57.352Z,38.13
2018-04-25T22:33:23.684Z,38.35
2018-04-25T22:35:50.060Z,38.33
2018-04-25T22:38:16.397Z,38.30
2018-04-25T22:40:42.854Z,38.30
2018-04-25T22:43:09.218Z,38.34
2018-04-25T22:45:35.596Z,38.51
2018-04-25T22:48:01.973Z,38.35
2018-04-25T22:50:28.344Z,38.22
2018-04-25T22:52:54.724Z,38.44
2018-04-25T22:55:21.092Z,38.44
2018-04-25T22:57:47.409Z,38.46
2018-04-25T23:00:13.749Z,38.26
2018-04-25T23:02:40.121Z,38.17
2018-04-25T23:05:06.497Z,38.29
2018-04-25T23:07:32.818Z,38.52
2018-04-25T23:09:59.162Z,38.53
2018-04-25T23:12:25.537Z,38.44
2018-04-25T23:14:51.873Z,38.56
2018-04-25T23:17:18.192Z,38.63
2018-04-25T23:19:44.559Z,38.62
2018-04-25T23:22:10.875Z,38.67
2018-04-25T23:24:37.243Z,38.40
2018-04-25T23:27:03.649Z,38.58
2018-04-25T23:29:30.002Z,38.65
2018-04-25T23:31:56.333Z,38.43
2018-04-25T23:34:22.661Z,38.72
2018-04-25T23:36:48.991Z,38.65
2018-04-25T23:39:15.326Z,38.76
2018-04-25T23:41:41.692Z,38.67
2018-04-25T23:44:08.018Z,38.73
2018-04-25T23:46:34.339Z,38.81
2018-04-25T23:49:00.717Z,38.79
2018-04-25T23:51:27.081Z,38.85
2018-04-25T23:53:53.391Z,38.67
2018-04-25T23:56:19.754Z,38.80
2018-04-25T23:58:46.161Z,38.82
